sensor_id;sensor_type;location;lat;lon;timestamp;pressure;altitude;pressure_sealevel;temperature
14023;BMP180;7086;48.116;11.580;2023-07-22T00:00:35;95346.00;;;20.80
14023;BMP180;7086;48.116;11.580;2023-07-22T00:03:01;95345.00;;;20.70
14023;BMP180;7086;48.116;11.580;2023-07-22T00:05:28;95349.00;;;20.70
14023;BMP180;7086;48.116;11.580;2023-07-22T00:07:55;95348.00;;;20.60
14023;BMP180;7086;48.116;11.580;2023-07-22T00:10:23;95339.00;;;20.60
14023;BMP180;7086;48.116;11.580;2023-07-22T00:12:50;95345.00;;;20.50
14023;BMP180;7086;48.116;11.580;2023-07-22T00:15:16;95339.00;;;20.50
14023;BMP180;7086;48.116;11.580;2023-07-22T00:17:46;95341.00;;;20.50
14023;BMP180;7086;48.116;11.580;2023-07-22T00:20:12;95315.00;;;20.50
14023;BMP180;7086;48.116;11.580;2023-07-22T00:22:41;95339.00;;;20.40
14023;BMP180;7086;48.116;11.580;2023-07-22T00:25:09;95344.00;;;20.40
14023;BMP180;7086;48.116;11.580;2023-07-22T00:27:38;95338.00;;;20.40
14023;BMP180;7086;48.116;11.580;2023-07-22T00:30:05;95337.00;;;20.40
14023;BMP180;7086;48.116;11.580;2023-07-22T00:32:32;95336.00;;;20.30
14023;BMP180;7086;48.116;11.580;2023-07-22T00:34:59;95329.00;;;20.30
14023;BMP180;7086;48.116;11.580;2023-07-22T00:37:26;95332.00;;;20.30
14023;BMP180;7086;48.116;11.580;2023-07-22T00:39:53;95317.00;;;20.30
14023;BMP180;7086;48.116;11.580;2023-07-22T00:42:20;95303.00;;;20.20
14023;BMP180;7086;48.116;11.580;2023-07-22T00:44:48;95326.00;;;20.20
14023;BMP180;7086;48.116;11.580;2023-07-22T00:47:16;95320.00;;;20.20
14023;BMP180;7086;48.116;11.580;2023-07-22T00:49:43;95309.00;;;20.20
14023;BMP180;7086;48.116;11.580;2023-07-22T00:52:10;95310.00;;;20.20
14023;BMP180;7086;48.116;11.580;2023-07-22T00:54:36;95320.00;;;20.20
14023;BMP180;7086;48.116;11.580;2023-07-22T00:57:03;95314.00;;;20.20
14023;BMP180;7086;48.116;11.580;2023-07-22T00:59:30;95307.00;;;20.10
14023;BMP180;7086;48.116;11.580;2023-07-22T01:01:58;95311.00;;;20.10
14023;BMP180;7086;48.116;11.580;2023-07-22T01:04:25;95309.00;;;20.10
14023;BMP180;7086;48.116;11.580;2023-07-22T01:06:52;95297.00;;;20.10
14023;BMP180;7086;48.116;11.580;2023-07-22T01:09:20;95294.00;;;20.10
14023;BMP180;7086;48.116;11.580;2023-07-22T01:11:46;95292.00;;;20.10
14023;BMP180;7086;48.116;11.580;2023-07-22T01:14:14;95302.00;;;20.10
14023;BMP180;7086;48.116;11.580;2023-07-22T01:16:40;95289.00;;;20.10
14023;BMP180;7086;48.116;11.580;2023-07-22T01:19:10;95290.00;;;20.00
14023;BMP180;7086;48.116;11.580;2023-07-22T01:21:40;95289.00;;;20.10
14023;BMP180;7086;48.116;11.580;2023-07-22T01:24:08;95297.00;;;20.00
14023;BMP180;7086;48.116;11.580;2023-07-22T01:26:36;95299.00;;;20.00
14023;BMP180;7086;48.116;11.580;2023-07-22T01:29:04;95302.00;;;19.90
14023;BMP180;7086;48.116;11.580;2023-07-22T01:31:33;95296.00;;;19.90
14023;BMP180;7086;48.116;11.580;2023-07-22T01:34:00;95309.00;;;19.90
14023;BMP180;7086;48.116;11.580;2023-07-22T01:36:27;95309.00;;;19.90
14023;BMP180;7086;48.116;11.580;2023-07-22T01:38:53;95314.00;;;19.80
14023;BMP180;7086;48.116;11.580;2023-07-22T01:41:21;95317.00;;;19.70
14023;BMP180;7086;48.116;11.580;2023-07-22T01:43:48;95305.00;;;19.70
14023;BMP180;7086;48.116;11.580;2023-07-22T01:46:18;95308.00;;;19.70
14023;BMP180;7086;48.116;11.580;2023-07-22T01:48:45;95302.00;;;19.70
14023;BMP180;7086;48.116;11.580;2023-07-22T01:51:11;95310.00;;;19.60
14023;BMP180;7086;48.116;11.580;2023-07-22T01:53:38;95315.00;;;19.60
14023;BMP180;7086;48.116;11.580;2023-07-22T01:56:05;95302.00;;;19.60
14023;BMP180;7086;48.116;11.580;2023-07-22T01:58:33;95311.00;;;19.60
14023;BMP180;7086;48.116;11.580;2023-07-22T02:01:00;95317.00;;;19.60
14023;BMP180;7086;48.116;11.580;2023-07-22T02:03:27;95309.00;;;19.70
14023;BMP180;7086;48.116;11.580;2023-07-22T02:05:54;95301.00;;;19.70
14023;BMP180;7086;48.116;11.580;2023-07-22T02:08:27;95308.00;;;19.70
14023;BMP180;7086;48.116;11.580;2023-07-22T02:10:53;95300.00;;;19.70
14023;BMP180;7086;48.116;11.580;2023-07-22T02:13:20;95313.00;;;19.80
14023;BMP180;7086;48.116;11.580;2023-07-22T02:15:49;95266.00;;;19.80
14023;BMP180;7086;48.116;11.580;2023-07-22T02:18:15;95307.00;;;19.80
14023;BMP180;7086;48.116;11.580;2023-07-22T02:20:42;95303.00;;;19.80
14023;BMP180;7086;48.116;11.580;2023-07-22T02:23:09;95324.00;;;19.80
14023;BMP180;7086;48.116;11.580;2023-07-22T02:25:36;95324.00;;;19.80
14023;BMP180;7086;48.116;11.580;2023-07-22T02:28:03;95313.00;;;19.80
14023;BMP180;7086;48.116;11.580;2023-07-22T02:30:33;95315.00;;;19.80
14023;BMP180;7086;48.116;11.580;2023-07-22T02:33:02;95316.00;;;19.80
14023;BMP180;7086;48.116;11.580;2023-07-22T02:35:29;95309.00;;;19.80
14023;BMP180;7086;48.116;11.580;2023-07-22T02:37:56;95314.00;;;19.80
14023;BMP180;7086;48.116;11.580;2023-07-22T02:40:23;95313.00;;;19.80
14023;BMP180;7086;48.116;11.580;2023-07-22T02:42:50;95303.00;;;19.70
14023;BMP180;7086;48.116;11.580;2023-07-22T02:45:16;95314.00;;;19.70
14023;BMP180;7086;48.116;11.580;2023-07-22T02:47:43;95315.00;;;19.70
14023;BMP180;7086;48.116;11.580;2023-07-22T02:50:11;95311.00;;;19.70
14023;BMP180;7086;48.116;11.580;2023-07-22T02:52:38;95321.00;;;19.70
14023;BMP180;7086;48.116;11.580;2023-07-22T02:55:07;95317.00;;;19.70
14023;BMP180;7086;48.116;11.580;2023-07-22T02:57:36;95323.00;;;19.70
14023;BMP180;7086;48.116;11.580;2023-07-22T03:00:04;95328.00;;;19.60
14023;BMP180;7086;48.116;11.580;2023-07-22T03:02:33;95309.00;;;19.70
14023;BMP180;7086;48.116;11.580;2023-07-22T03:05:00;95321.00;;;19.70
14023;BMP180;7086;48.116;11.580;2023-07-22T03:07:29;95324.00;;;19.70
14023;BMP180;7086;48.116;11.580;2023-07-22T03:09:56;95327.00;;;19.70
14023;BMP180;7086;48.116;11.580;2023-07-22T03:12:23;95326.00;;;19.70
14023;BMP180;7086;48.116;11.580;2023-07-22T03:14:49;95325.00;;;19.60
14023;BMP180;7086;48.116;11.580;2023-07-22T03:17:17;95329.00;;;19.60
14023;BMP180;7086;48.116;11.580;2023-07-22T03:19:44;95329.00;;;19.60
14023;BMP180;7086;48.116;11.580;2023-07-22T03:22:13;95319.00;;;19.60
14023;BMP180;7086;48.116;11.580;2023-07-22T03:24:42;95328.00;;;19.60
14023;BMP180;7086;48.116;11.580;2023-07-22T03:27:09;95326.00;;;19.60
14023;BMP180;7086;48.116;11.580;2023-07-22T03:29:37;95322.00;;;19.60
14023;BMP180;7086;48.116;11.580;2023-07-22T03:32:04;95329.00;;;19.60
14023;BMP180;7086;48.116;11.580;2023-07-22T03:34:31;95239.00;;;19.60
14023;BMP180;7086;48.116;11.580;2023-07-22T03:36:58;95242.00;;;19.50
14023;BMP180;7086;48.116;11.580;2023-07-22T03:39:26;95352.00;;;19.40
14023;BMP180;7086;48.116;11.580;2023-07-22T03:41:54;95269.00;;;19.20
14023;BMP180;7086;48.116;11.580;2023-07-22T03:44:21;95397.00;;;19.50
14023;BMP180;7086;48.116;11.580;2023-07-22T03:46:49;95232.00;;;19.50
14023;BMP180;7086;48.116;11.580;2023-07-22T03:49:16;95374.00;;;19.60
14023;BMP180;7086;48.116;11.580;2023-07-22T03:51:43;95244.00;;;19.60
14023;BMP180;7086;48.116;11.580;2023-07-22T03:54:10;95260.00;;;19.60
14023;BMP180;7086;48.116;11.580;2023-07-22T03:56:40;95278.00;;;19.60
14023;BMP180;7086;48.116;11.580;2023-07-22T03:59:09;95313.00;;;19.60
14023;BMP180;7086;48.116;11.580;2023-07-22T04:01:36;95365.00;;;19.70
14023;BMP180;7086;48.116;11.580;2023-07-22T04:04:03;95341.00;;;19.70
14023;BMP180;7086;48.116;11.580;2023-07-22T04:06:30;95342.00;;;19.80
14023;BMP180;7086;48.116;11.580;2023-07-22T04:08:57;95349.00;;;19.90
14023;BMP180;7086;48.116;11.580;2023-07-22T04:11:25;95346.00;;;19.90
14023;BMP180;7086;48.116;11.580;2023-07-22T04:13:53;95349.00;;;19.90
14023;BMP180;7086;48.116;11.580;2023-07-22T04:16:21;95356.00;;;20.00
14023;BMP180;7086;48.116;11.580;2023-07-22T04:18:48;95347.00;;;20.00
14023;BMP180;7086;48.116;11.580;2023-07-22T04:21:13;95356.00;;;19.90
14023;BMP180;7086;48.116;11.580;2023-07-22T04:23:40;95363.00;;;20.10
14023;BMP180;7086;48.116;11.580;2023-07-22T04:26:07;95341.00;;;20.10
14023;BMP180;7086;48.116;11.580;2023-07-22T04:28:33;95359.00;;;20.20
14023;BMP180;7086;48.116;11.580;2023-07-22T04:31:00;95341.00;;;20.20
14023;BMP180;7086;48.116;11.580;2023-07-22T04:33:29;95359.00;;;20.30
14023;BMP180;7086;48.116;11.580;2023-07-22T04:35:58;95361.00;;;20.30
14023;BMP180;7086;48.116;11.580;2023-07-22T04:38:26;95326.00;;;20.40
14023;BMP180;7086;48.116;11.580;2023-07-22T04:40:53;95349.00;;;20.40
14023;BMP180;7086;48.116;11.580;2023-07-22T04:43:19;95308.00;;;20.50
14023;BMP180;7086;48.116;11.580;2023-07-22T04:45:46;95341.00;;;20.60
14023;BMP180;7086;48.116;11.580;2023-07-22T04:48:14;95332.00;;;20.70
14023;BMP180;7086;48.116;11.580;2023-07-22T04:50:43;95342.00;;;20.70
14023;BMP180;7086;48.116;11.580;2023-07-22T04:53:11;95351.00;;;20.80
14023;BMP180;7086;48.116;11.580;2023-07-22T04:55:40;95357.00;;;20.90
14023;BMP180;7086;48.116;11.580;2023-07-22T04:58:07;95359.00;;;21.10
14023;BMP180;7086;48.116;11.580;2023-07-22T05:00:35;95348.00;;;21.20
14023;BMP180;7086;48.116;11.580;2023-07-22T05:03:02;95355.00;;;21.30
14023;BMP180;7086;48.116;11.580;2023-07-22T05:05:29;95352.00;;;21.30
14023;BMP180;7086;48.116;11.580;2023-07-22T05:07:57;95351.00;;;21.40
14023;BMP180;7086;48.116;11.580;2023-07-22T05:10:24;95352.00;;;21.50
14023;BMP180;7086;48.116;11.580;2023-07-22T05:12:51;95354.00;;;21.60
14023;BMP180;7086;48.116;11.580;2023-07-22T05:15:17;95358.00;;;21.70
14023;BMP180;7086;48.116;11.580;2023-07-22T05:17:44;95353.00;;;21.80
14023;BMP180;7086;48.116;11.580;2023-07-22T05:20:11;95366.00;;;21.90
14023;BMP180;7086;48.116;11.580;2023-07-22T05:22:38;95368.00;;;22.00
14023;BMP180;7086;48.116;11.580;2023-07-22T05:25:07;95371.00;;;22.10
14023;BMP180;7086;48.116;11.580;2023-07-22T05:27:35;95341.00;;;22.20
14023;BMP180;7086;48.116;11.580;2023-07-22T05:30:02;95355.00;;;22.20
14023;BMP180;7086;48.116;11.580;2023-07-22T05:32:29;95363.00;;;22.30
14023;BMP180;7086;48.116;11.580;2023-07-22T05:34:56;95370.00;;;22.30
14023;BMP180;7086;48.116;11.580;2023-07-22T05:37:23;95360.00;;;22.40
14023;BMP180;7086;48.116;11.580;2023-07-22T05:39:50;95363.00;;;22.50
14023;BMP180;7086;48.116;11.580;2023-07-22T05:42:18;95365.00;;;22.50
14023;BMP180;7086;48.116;11.580;2023-07-22T05:44:45;95370.00;;;22.60
14023;BMP180;7086;48.116;11.580;2023-07-22T05:47:11;95362.00;;;22.60
14023;BMP180;7086;48.116;11.580;2023-07-22T05:49:38;95367.00;;;22.70
14023;BMP180;7086;48.116;11.580;2023-07-22T05:52:05;95366.00;;;22.70
14023;BMP180;7086;48.116;11.580;2023-07-22T05:54:32;95369.00;;;22.70
14023;BMP180;7086;48.116;11.580;2023-07-22T05:56:59;95369.00;;;22.80
14023;BMP180;7086;48.116;11.580;2023-07-22T05:59:27;95370.00;;;22.90
14023;BMP180;7086;48.116;11.580;2023-07-22T06:01:54;95369.00;;;22.90
14023;BMP180;7086;48.116;11.580;2023-07-22T06:04:21;95378.00;;;23.00
14023;BMP180;7086;48.116;11.580;2023-07-22T06:06:48;95374.00;;;23.20
14023;BMP180;7086;48.116;11.580;2023-07-22T06:09:15;95379.00;;;23.30
14023;BMP180;7086;48.116;11.580;2023-07-22T06:11:42;95376.00;;;23.40
14023;BMP180;7086;48.116;11.580;2023-07-22T06:14:08;95379.00;;;23.60
14023;BMP180;7086;48.116;11.580;2023-07-22T06:16:37;95396.00;;;23.80
14023;BMP180;7086;48.116;11.580;2023-07-22T06:19:03;95395.00;;;23.90
14023;BMP180;7086;48.116;11.580;2023-07-22T06:21:30;95388.00;;;24.10
14023;BMP180;7086;48.116;11.580;2023-07-22T06:23:57;95382.00;;;24.20
14023;BMP180;7086;48.116;11.580;2023-07-22T06:26:24;95388.00;;;24.40
14023;BMP180;7086;48.116;11.580;2023-07-22T06:28:50;95400.00;;;24.70
14023;BMP180;7086;48.116;11.580;2023-07-22T06:31:19;95402.00;;;25.10
14023;BMP180;7086;48.116;11.580;2023-07-22T06:33:48;95384.00;;;25.80
14023;BMP180;7086;48.116;11.580;2023-07-22T06:36:15;95406.00;;;26.40
14023;BMP180;7086;48.116;11.580;2023-07-22T06:38:43;95412.00;;;26.90
14023;BMP180;7086;48.116;11.580;2023-07-22T06:41:09;95396.00;;;27.30
14023;BMP180;7086;48.116;11.580;2023-07-22T06:43:36;95397.00;;;27.50
14023;BMP180;7086;48.116;11.580;2023-07-22T06:46:03;95394.00;;;27.70
14023;BMP180;7086;48.116;11.580;2023-07-22T06:48:30;95397.00;;;27.80
14023;BMP180;7086;48.116;11.580;2023-07-22T06:50:58;95400.00;;;27.80
14023;BMP180;7086;48.116;11.580;2023-07-22T06:53:25;95408.00;;;27.80
14023;BMP180;7086;48.116;11.580;2023-07-22T06:55:52;95412.00;;;27.80
14023;BMP180;7086;48.116;11.580;2023-07-22T06:58:19;95412.00;;;27.70
14023;BMP180;7086;48.116;11.580;2023-07-22T07:00:47;95408.00;;;27.80
14023;BMP180;7086;48.116;11.580;2023-07-22T07:03:14;95402.00;;;27.80
14023;BMP180;7086;48.116;11.580;2023-07-22T07:05:41;95405.00;;;27.80
14023;BMP180;7086;48.116;11.580;2023-07-22T07:08:09;95404.00;;;27.90
14023;BMP180;7086;48.116;11.580;2023-07-22T07:10:37;95410.00;;;28.00
14023;BMP180;7086;48.116;11.580;2023-07-22T07:13:05;95410.00;;;28.10
14023;BMP180;7086;48.116;11.580;2023-07-22T07:15:32;95412.00;;;28.20
14023;BMP180;7086;48.116;11.580;2023-07-22T07:17:58;95409.00;;;28.30
14023;BMP180;7086;48.116;11.580;2023-07-22T07:20:24;95408.00;;;28.30
14023;BMP180;7086;48.116;11.580;2023-07-22T07:22:51;95418.00;;;28.20
14023;BMP180;7086;48.116;11.580;2023-07-22T07:25:19;95407.00;;;28.20
14023;BMP180;7086;48.116;11.580;2023-07-22T07:27:46;95418.00;;;28.10
14023;BMP180;7086;48.116;11.580;2023-07-22T07:30:13;95423.00;;;28.10
14023;BMP180;7086;48.116;11.580;2023-07-22T07:32:39;95415.00;;;28.30
14023;BMP180;7086;48.116;11.580;2023-07-22T07:35:07;95420.00;;;28.80
14023;BMP180;7086;48.116;11.580;2023-07-22T07:37:34;95430.00;;;29.20
14023;BMP180;7086;48.116;11.580;2023-07-22T07:40:01;95428.00;;;29.70
14023;BMP180;7086;48.116;11.580;2023-07-22T07:42:30;95429.00;;;30.20
14023;BMP180;7086;48.116;11.580;2023-07-22T07:44:57;95424.00;;;30.70
14023;BMP180;7086;48.116;11.580;2023-07-22T07:47:24;95426.00;;;31.20
14023;BMP180;7086;48.116;11.580;2023-07-22T07:49:51;95431.00;;;31.70
14023;BMP180;7086;48.116;11.580;2023-07-22T07:52:17;95421.00;;;32.10
14023;BMP180;7086;48.116;11.580;2023-07-22T07:54:44;95426.00;;;32.40
14023;BMP180;7086;48.116;11.580;2023-07-22T07:57:11;95437.00;;;32.70
14023;BMP180;7086;48.116;11.580;2023-07-22T07:59:39;95435.00;;;32.90
14023;BMP180;7086;48.116;11.580;2023-07-22T08:02:06;95413.00;;;33.20
14023;BMP180;7086;48.116;11.580;2023-07-22T08:04:34;95434.00;;;33.40
14023;BMP180;7086;48.116;11.580;2023-07-22T08:07:01;95434.00;;;33.60
14023;BMP180;7086;48.116;11.580;2023-07-22T08:09:30;95436.00;;;34.00
14023;BMP180;7086;48.116;11.580;2023-07-22T08:11:56;95433.00;;;34.20
14023;BMP180;7086;48.116;11.580;2023-07-22T08:14:23;95433.00;;;34.40
14023;BMP180;7086;48.116;11.580;2023-07-22T08:16:54;95436.00;;;34.60
14023;BMP180;7086;48.116;11.580;2023-07-22T08:19:20;95436.00;;;34.90
14023;BMP180;7086;48.116;11.580;2023-07-22T08:21:47;95444.00;;;35.10
14023;BMP180;7086;48.116;11.580;2023-07-22T08:24:14;95437.00;;;35.40
14023;BMP180;7086;48.116;11.580;2023-07-22T08:26:40;95414.00;;;35.70
14023;BMP180;7086;48.116;11.580;2023-07-22T08:29:07;95431.00;;;36.00
14023;BMP180;7086;48.116;11.580;2023-07-22T08:31:35;95435.00;;;36.20
14023;BMP180;7086;48.116;11.580;2023-07-22T08:34:04;95448.00;;;36.40
14023;BMP180;7086;48.116;11.580;2023-07-22T08:36:30;95448.00;;;36.60
14023;BMP180;7086;48.116;11.580;2023-07-22T08:38:57;95436.00;;;36.80
14023;BMP180;7086;48.116;11.580;2023-07-22T08:41:25;95441.00;;;37.00
14023;BMP180;7086;48.116;11.580;2023-07-22T08:43:54;95441.00;;;37.00
14023;BMP180;7086;48.116;11.580;2023-07-22T08:46:23;95436.00;;;37.00
14023;BMP180;7086;48.116;11.580;2023-07-22T08:48:54;95441.00;;;36.80
14023;BMP180;7086;48.116;11.580;2023-07-22T08:51:23;95428.00;;;36.70
14023;BMP180;7086;48.116;11.580;2023-07-22T08:53:50;95432.00;;;36.70
14023;BMP180;7086;48.116;11.580;2023-07-22T08:56:18;95439.00;;;36.80
14023;BMP180;7086;48.116;11.580;2023-07-22T08:58:46;95440.00;;;36.90
14023;BMP180;7086;48.116;11.580;2023-07-22T09:01:13;95447.00;;;37.20
14023;BMP180;7086;48.116;11.580;2023-07-22T09:03:40;95443.00;;;37.40
14023;BMP180;7086;48.116;11.580;2023-07-22T09:06:08;95445.00;;;37.60
14023;BMP180;7086;48.116;11.580;2023-07-22T09:08:36;95443.00;;;37.70
14023;BMP180;7086;48.116;11.580;2023-07-22T09:11:04;95450.00;;;37.70
14023;BMP180;7086;48.116;11.580;2023-07-22T09:13:30;95442.00;;;37.70
14023;BMP180;7086;48.116;11.580;2023-07-22T09:15:58;95439.00;;;37.70
14023;BMP180;7086;48.116;11.580;2023-07-22T09:18:26;95435.00;;;37.50
14023;BMP180;7086;48.116;11.580;2023-07-22T09:20:53;95435.00;;;37.40
14023;BMP180;7086;48.116;11.580;2023-07-22T09:23:31;95445.00;;;37.50
14023;BMP180;7086;48.116;11.580;2023-07-22T09:26:09;95440.00;;;37.60
14023;BMP180;7086;48.116;11.580;2023-07-22T09:28:53;95449.00;;;37.60
14023;BMP180;7086;48.116;11.580;2023-07-22T09:31:27;95428.00;;;37.70
14023;BMP180;7086;48.116;11.580;2023-07-22T09:33:54;95434.00;;;37.80
14023;BMP180;7086;48.116;11.580;2023-07-22T09:36:21;95440.00;;;37.80
14023;BMP180;7086;48.116;11.580;2023-07-22T09:38:59;95420.00;;;37.80
14023;BMP180;7086;48.116;11.580;2023-07-22T09:41:29;95434.00;;;37.80
14023;BMP180;7086;48.116;11.580;2023-07-22T09:43:56;95442.00;;;37.80
14023;BMP180;7086;48.116;11.580;2023-07-22T09:46:31;95401.00;;;37.90
14023;BMP180;7086;48.116;11.580;2023-07-22T09:49:02;95424.00;;;38.00
14023;BMP180;7086;48.116;11.580;2023-07-22T09:51:33;95437.00;;;38.00
14023;BMP180;7086;48.116;11.580;2023-07-22T09:54:01;95434.00;;;37.90
14023;BMP180;7086;48.116;11.580;2023-07-22T09:56:44;95424.00;;;37.70
14023;BMP180;7086;48.116;11.580;2023-07-22T09:59:11;95414.00;;;37.50
14023;BMP180;7086;48.116;11.580;2023-07-22T10:01:39;95426.00;;;37.20
14023;BMP180;7086;48.116;11.580;2023-07-22T10:04:06;95414.00;;;36.70
14023;BMP180;7086;48.116;11.580;2023-07-22T10:06:34;95415.00;;;36.40
14023;BMP180;7086;48.116;11.580;2023-07-22T10:09:03;95429.00;;;36.30
14023;BMP180;7086;48.116;11.580;2023-07-22T10:11:34;95423.00;;;36.40
14023;BMP180;7086;48.116;11.580;2023-07-22T10:14:01;95414.00;;;36.50
14023;BMP180;7086;48.116;11.580;2023-07-22T10:16:28;95416.00;;;36.50
14023;BMP180;7086;48.116;11.580;2023-07-22T10:18:56;95416.00;;;36.50
14023;BMP180;7086;48.116;11.580;2023-07-22T10:21:23;95405.00;;;36.50
14023;BMP180;7086;48.116;11.580;2023-07-22T10:23:50;95414.00;;;36.30
14023;BMP180;7086;48.116;11.580;2023-07-22T10:26:18;95412.00;;;36.20
14023;BMP180;7086;48.116;11.580;2023-07-22T10:28:47;95416.00;;;36.00
14023;BMP180;7086;48.116;11.580;2023-07-22T10:31:14;95418.00;;;35.90
14023;BMP180;7086;48.116;11.580;2023-07-22T10:33:45;95406.00;;;35.90
14023;BMP180;7086;48.116;11.580;2023-07-22T10:36:14;95418.00;;;35.80
14023;BMP180;7086;48.116;11.580;2023-07-22T10:38:42;95419.00;;;35.80
14023;BMP180;7086;48.116;11.580;2023-07-22T10:41:13;95407.00;;;35.70
14023;BMP180;7086;48.116;11.580;2023-07-22T10:43:43;95410.00;;;35.60
14023;BMP180;7086;48.116;11.580;2023-07-22T10:46:31;95378.00;;;35.50
14023;BMP180;7086;48.116;11.580;2023-07-22T10:49:07;95412.00;;;35.50
14023;BMP180;7086;48.116;11.580;2023-07-22T10:51:36;95404.00;;;35.60
14023;BMP180;7086;48.116;11.580;2023-07-22T10:54:11;95405.00;;;35.50
14023;BMP180;7086;48.116;11.580;2023-07-22T10:56:39;95399.00;;;35.40
14023;BMP180;7086;48.116;11.580;2023-07-22T10:59:12;95397.00;;;35.40
14023;BMP180;7086;48.116;11.580;2023-07-22T11:01:43;95386.00;;;35.50
14023;BMP180;7086;48.116;11.580;2023-07-22T11:04:24;95394.00;;;35.50
14023;BMP180;7086;48.116;11.580;2023-07-22T11:06:57;95374.00;;;35.70
14023;BMP180;7086;48.116;11.580;2023-07-22T11:09:37;95387.00;;;36.10
14023;BMP180;7086;48.116;11.580;2023-07-22T11:12:08;95385.00;;;36.50
14023;BMP180;7086;48.116;11.580;2023-07-22T11:14:38;95371.00;;;36.80
14023;BMP180;7086;48.116;11.580;2023-07-22T11:17:08;95369.00;;;37.00
14023;BMP180;7086;48.116;11.580;2023-07-22T11:19:37;95360.00;;;37.10
14023;BMP180;7086;48.116;11.580;2023-07-22T11:22:04;95365.00;;;37.20
14023;BMP180;7086;48.116;11.580;2023-07-22T11:24:33;95361.00;;;37.30
14023;BMP180;7086;48.116;11.580;2023-07-22T11:27:02;95359.00;;;37.40
14023;BMP180;7086;48.116;11.580;2023-07-22T11:29:29;95357.00;;;37.40
14023;BMP180;7086;48.116;11.580;2023-07-22T11:31:57;95370.00;;;37.40
14023;BMP180;7086;48.116;11.580;2023-07-22T11:34:25;95355.00;;;37.30
14023;BMP180;7086;48.116;11.580;2023-07-22T11:36:53;95360.00;;;37.20
14023;BMP180;7086;48.116;11.580;2023-07-22T11:39:21;95347.00;;;37.00
14023;BMP180;7086;48.116;11.580;2023-07-22T11:41:49;95338.00;;;36.90
14023;BMP180;7086;48.116;11.580;2023-07-22T11:44:18;95340.00;;;36.60
14023;BMP180;7086;48.116;11.580;2023-07-22T11:46:54;95343.00;;;36.20
14023;BMP180;7086;48.116;11.580;2023-07-22T11:49:23;95350.00;;;35.90
14023;BMP180;7086;48.116;11.580;2023-07-22T11:51:52;95335.00;;;35.60
14023;BMP180;7086;48.116;11.580;2023-07-22T11:54:20;95333.00;;;35.30
14023;BMP180;7086;48.116;11.580;2023-07-22T11:56:47;95334.00;;;35.10
14023;BMP180;7086;48.116;11.580;2023-07-22T11:59:14;95343.00;;;34.90
14023;BMP180;7086;48.116;11.580;2023-07-22T12:01:43;95326.00;;;34.80
14023;BMP180;7086;48.116;11.580;2023-07-22T12:04:10;95320.00;;;34.60
14023;BMP180;7086;48.116;11.580;2023-07-22T12:06:38;95322.00;;;34.50
14023;BMP180;7086;48.116;11.580;2023-07-22T12:09:07;95311.00;;;34.20
14023;BMP180;7086;48.116;11.580;2023-07-22T12:11:35;95317.00;;;34.00
14023;BMP180;7086;48.116;11.580;2023-07-22T12:14:07;95312.00;;;33.60
14023;BMP180;7086;48.116;11.580;2023-07-22T12:16:37;95309.00;;;33.40
14023;BMP180;7086;48.116;11.580;2023-07-22T12:19:07;95312.00;;;33.20
14023;BMP180;7086;48.116;11.580;2023-07-22T12:21:35;95303.00;;;33.00
14023;BMP180;7086;48.116;11.580;2023-07-22T12:24:02;95308.00;;;32.90
14023;BMP180;7086;48.116;11.580;2023-07-22T12:26:31;95293.00;;;32.70
14023;BMP180;7086;48.116;11.580;2023-07-22T12:28:57;95292.00;;;32.50
14023;BMP180;7086;48.116;11.580;2023-07-22T12:31:27;95307.00;;;32.30
14023;BMP180;7086;48.116;11.580;2023-07-22T12:33:54;95308.00;;;32.20
14023;BMP180;7086;48.116;11.580;2023-07-22T12:36:21;95294.00;;;32.00
14023;BMP180;7086;48.116;11.580;2023-07-22T12:38:47;95290.00;;;31.90
14023;BMP180;7086;48.116;11.580;2023-07-22T12:41:14;95284.00;;;31.90
14023;BMP180;7086;48.116;11.580;2023-07-22T12:43:42;95294.00;;;31.90
14023;BMP180;7086;48.116;11.580;2023-07-22T12:46:09;95299.00;;;31.80
14023;BMP180;7086;48.116;11.580;2023-07-22T12:48:36;95296.00;;;31.80
14023;BMP180;7086;48.116;11.580;2023-07-22T12:51:04;95293.00;;;31.80
14023;BMP180;7086;48.116;11.580;2023-07-22T12:53:34;95299.00;;;31.70
14023;BMP180;7086;48.116;11.580;2023-07-22T12:56:00;95292.00;;;31.70
14023;BMP180;7086;48.116;11.580;2023-07-22T12:58:28;95299.00;;;31.70
14023;BMP180;7086;48.116;11.580;2023-07-22T13:00:58;95291.00;;;31.70
14023;BMP180;7086;48.116;11.580;2023-07-22T13:03:25;95286.00;;;31.70
14023;BMP180;7086;48.116;11.580;2023-07-22T13:05:51;95278.00;;;31.60
14023;BMP180;7086;48.116;11.580;2023-07-22T13:08:18;95284.00;;;31.60
14023;BMP180;7086;48.116;11.580;2023-07-22T13:10:45;95282.00;;;31.50
14023;BMP180;7086;48.116;11.580;2023-07-22T13:13:12;95272.00;;;31.50
14023;BMP180;7086;48.116;11.580;2023-07-22T13:15:41;95280.00;;;31.40
14023;BMP180;7086;48.116;11.580;2023-07-22T13:18:09;95277.00;;;31.40
14023;BMP180;7086;48.116;11.580;2023-07-22T13:20:39;95255.00;;;31.40
14023;BMP180;7086;48.116;11.580;2023-07-22T13:23:06;95274.00;;;31.50
14023;BMP180;7086;48.116;11.580;2023-07-22T13:25:32;95264.00;;;31.50
14023;BMP180;7086;48.116;11.580;2023-07-22T13:28:02;95258.00;;;31.50
14023;BMP180;7086;48.116;11.580;2023-07-22T13:30:29;95267.00;;;31.50
14023;BMP180;7086;48.116;11.580;2023-07-22T13:32:56;95273.00;;;31.50
14023;BMP180;7086;48.116;11.580;2023-07-22T13:35:24;95276.00;;;31.50
14023;BMP180;7086;48.116;11.580;2023-07-22T13:37:51;95250.00;;;31.40
14023;BMP180;7086;48.116;11.580;2023-07-22T13:40:18;95264.00;;;31.40
14023;BMP180;7086;48.116;11.580;2023-07-22T13:42:45;95257.00;;;31.30
14023;BMP180;7086;48.116;11.580;2023-07-22T13:45:12;95259.00;;;31.30
14023;BMP180;7086;48.116;11.580;2023-07-22T13:47:38;95266.00;;;31.40
14023;BMP180;7086;48.116;11.580;2023-07-22T13:50:05;95268.00;;;31.40
14023;BMP180;7086;48.116;11.580;2023-07-22T13:52:34;95257.00;;;31.50
14023;BMP180;7086;48.116;11.580;2023-07-22T13:55:00;95260.00;;;31.50
14023;BMP180;7086;48.116;11.580;2023-07-22T13:57:27;95247.00;;;31.50
14023;BMP180;7086;48.116;11.580;2023-07-22T13:59:54;95254.00;;;31.60
14023;BMP180;7086;48.116;11.580;2023-07-22T14:02:21;95250.00;;;31.70
14023;BMP180;7086;48.116;11.580;2023-07-22T14:04:48;95255.00;;;31.80
14023;BMP180;7086;48.116;11.580;2023-07-22T14:07:14;95253.00;;;31.90
14023;BMP180;7086;48.116;11.580;2023-07-22T14:09:44;95262.00;;;31.90
14023;BMP180;7086;48.116;11.580;2023-07-22T14:12:11;95268.00;;;31.90